Date,TemperatureHighF,TemperatureAvgF,TemperatureLowF,DewpointHighF,DewpointAvgF,DewpointLowF,HumidityHigh,HumidityAvg,HumidityLow,PressureMaxIn,PressureMinIn,WindSpeedMaxMPH,WindSpeedAvgMPH,GustSpeedMaxMPH,PrecipitationSumIn
2014-1-5,69.0,64.5,56.0,14.0,5.9,-1.0,19,10,6,0.00,40.00,12,9,20,0.00
2014-1-6,67.0,61.1,44.0,14.0,9.7,8.0,27,14,10,0.00,40.00,9,7,15,0.00
2014-1-7,65.0,57.3,36.0,25.0,16.3,11.0,43,21,13,0.00,40.00,8,5,12,0.00
2014-1-8,69.0,58.1,38.0,24.0,19.6,15.0,57,25,13,0.00,40.00,6,5,10,0.00
2014-1-9,69.0,62.3,56.0,28.0,25.4,23.0,27,24,18,0.00,40.00,5,5,9,0.00
2014-1-10,72.0,61.8,39.0,28.0,26.5,25.0,61,28,18,0.00,40.00,6,3,10,0.00
2014-1-11,74.0,58.8,41.0,34.0,28.4,-99.9,66,36,20,0.00,40.00,5,3,9,0.00
2014-1-18,77.0,67.7,53.0,23.0,14.6,-99.9,26,14,10,0.00,40.00,8,5,13,0.00
2014-1-19,70.0,63.8,48.0,23.0,17.8,15.0,30,17,12,0.00,40.00,6,5,11,0.00
2014-1-20,76.0,66.9,37.0,23.0,20.7,18.0,57,19,11,0.00,40.00,7,5,12,0.00
2014-1-21,75.0,66.8,50.0,27.0,23.5,18.0,31,20,14,0.00,40.00,9,6,14,0.00
2014-1-22,80.0,73.1,51.0,27.0,19.0,15.0,39,14,9,0.00,40.00,6,5,11,0.00
2014-1-23,75.0,66.6,39.0,24.0,20.3,15.0,52,19,11,0.00,40.00,11,8,16,0.00
2014-1-24,69.0,62.3,50.0,32.0,26.9,24.0,40,27,19,0.00,40.00,12,7,19,0.00
2014-1-25,77.0,63.6,53.0,34.0,24.0,-99.9,48,26,11,0.00,40.00,8,4,15,0.00
2014-1-26,78.0,64.7,46.0,31.0,22.1,14.0,47,23,9,0.00,40.00,5,4,10,0.00
2014-1-27,78.0,66.8,51.0,47.0,37.6,26.0,79,41,15,0.00,40.00,7,5,12,0.01
2014-1-28,80.0,68.5,45.0,27.0,22.7,19.0,48,20,10,0.00,40.00,8,6,13,0.00
2014-1-29,82.0,67.9,49.0,33.0,26.3,22.0,51,23,11,0.00,40.00,6,4,10,0.00
2014-1-30,80.0,66.7,53.0,43.0,31.7,25.0,46,28,16,0.00,40.00,14,7,23,0.00
2014-1-31,72.0,63.3,53.0,44.0,39.2,34.0,59,42,27,0.00,40.00,13,8,20,0.00
2014-2-1,65.0,55.5,44.0,34.0,18.3,-99.9,52,26,11,0.00,40.00,12,7,22,0.00
2014-2-2,66.0,56.3,41.0,22.0,16.1,12.0,40,22,12,0.00,40.00,6,4,10,0.00
2014-2-3,67.0,53.8,44.0,35.0,25.2,16.0,48,34,20,0.00,40.00,6,4,12,0.00
2014-2-4,68.0,54.4,40.0,36.0,32.6,29.0,71,46,25,0.00,40.00,7,4,14,0.00
2014-2-5,70.0,58.0,50.0,38.0,34.6,30.0,61,43,26,0.00,40.00,8,4,12,0.00
2014-2-6,72.0,58.0,44.0,41.0,35.7,32.0,65,46,25,0.00,40.00,11,6,18,0.00
2014-2-7,71.0,58.1,46.0,43.0,39.7,37.0,76,53,31,0.00,40.00,9,6,17,0.00
2014-2-8,77.0,61.7,46.0,45.0,37.8,32.0,70,45,20,0.00,40.00,8,5,12,0.00
2014-2-9,84.0,64.1,45.0,40.0,35.1,29.0,70,39,14,0.00,40.00,9,5,16,0.00
2014-2-10,83.0,67.8,49.0,40.0,37.6,36.0,60,36,19,0.00,40.00,13,6,25,0.00
2014-2-11,81.0,73.1,60.0,35.0,28.7,22.0,39,21,12,0.00,40.00,12,8,20,0.00
2014-2-12,83.0,70.3,53.0,31.0,26.9,24.0,39,22,12,0.00,40.00,9,5,14,0.00
2014-2-13,86.0,72.1,48.0,30.0,25.7,18.0,46,21,8,0.00,40.00,7,5,12,0.00
2014-2-14,87.0,74.8,53.0,35.0,26.2,19.0,51,20,8,0.00,40.00,7,5,11,0.00
2014-2-15,93.0,75.8,53.0,33.0,25.0,-99.9,44,18,8,0.00,40.00,7,4,10,0.00
2014-2-16,85.0,66.7,52.0,39.0,33.0,25.0,54,31,11,0.00,40.00,7,4,11,0.00
2014-2-17,90.0,75.3,44.0,37.0,30.5,26.0,75,22,10,0.00,40.00,8,4,14,0.00
2014-2-18,83.0,69.2,47.0,35.0,30.9,28.0,49,26,15,0.00,40.00,8,5,14,0.00
2014-2-19,87.0,69.7,51.0,37.0,28.5,21.0,56,26,9,0.00,40.00,9,5,15,0.00
2014-2-20,77.0,70.7,57.0,34.0,15.2,7.0,42,14,7,0.00,40.00,12,8,20,0.00
2014-2-21,78.0,70.0,56.0,20.0,15.2,7.0,20,13,7,0.00,40.00,8,6,14,0.00
2014-2-22,81.0,69.5,50.0,27.0,18.6,-99.9,41,17,10,0.00,40.00,5,3,9,0.00
2014-2-23,85.0,67.0,47.0,30.0,24.1,17.0,52,24,8,0.00,40.00,7,4,11,0.00
2014-2-24,85.0,72.6,51.0,33.0,27.3,24.0,43,21,11,0.00,40.00,5,3,9,0.00
2014-2-25,80.0,66.1,49.0,44.0,37.6,31.0,59,37,23,0.00,40.00,9,4,15,0.00
2014-2-26,81.0,68.3,50.0,46.0,41.2,35.0,76,41,20,0.00,40.00,9,6,16,0.00
2014-2-27,82.0,68.1,53.0,48.0,44.0,40.0,68,44,24,0.00,40.00,13,7,22,0.00
2014-2-28,81.0,70.1,61.0,54.0,46.1,40.0,56,43,29,0.00,40.00,20,9,32,0.00
2014-3-1,72.0,62.1,54.0,54.0,43.1,-99.9,75,52,37,0.00,40.00,14,6,25,0.01
2014-3-2,73.0,60.4,47.0,44.0,41.1,38.0,80,52,29,0.00,40.00,9,4,14,0.01
2014-3-3,77.0,64.2,48.0,46.0,42.6,40.0,86,51,27,0.00,40.00,9,5,17,0.00
2014-3-4,81.0,72.2,52.0,43.0,40.6,38.0,66,34,23,0.00,40.00,8,5,15,0.00
2014-3-5,85.0,75.3,59.0,42.0,35.5,27.0,52,26,12,0.00,40.00,10,6,16,0.00
2014-3-6,90.0,74.8,53.0,46.0,36.5,29.0,68,30,12,0.00,40.00,7,4,14,0.00
2014-3-7,84.0,71.6,56.0,48.0,34.2,22.0,64,32,11,0.00,40.00,15,8,26,0.00
2014-3-8,82.0,70.6,60.0,28.0,22.3,-99.9,28,17,10,0.00,40.00,16,11,26,0.00
2014-3-9,84.0,76.8,54.0,34.0,25.8,21.0,32,16,10,0.00,40.00,12,9,21,0.00
2014-3-10,89.0,74.7,45.0,35.0,21.9,11.0,57,17,6,0.00,40.00,9,5,16,0.00
2014-3-11,79.0,68.8,50.0,36.0,23.1,7.0,52,22,8,0.00,40.00,16,9,25,0.00
2014-3-12,79.0,73.3,61.0,24.0,20.3,16.0,24,14,10,0.00,40.00,10,8,20,0.00
2014-3-13,82.0,73.5,52.0,29.0,22.7,18.0,41,16,11,0.00,40.00,9,5,21,0.00
2014-3-14,87.0,76.9,50.0,30.0,23.3,16.0,43,16,7,0.00,40.00,9,6,17,0.00
2014-3-15,87.0,74.2,52.0,29.0,17.5,7.0,38,15,5,0.00,40.00,21,10,35,0.00
2014-3-16,88.0,77.7,62.0,23.0,10.0,-99.9,22,9,4,0.00,40.00,11,6,17,0.00
2014-3-17,93.0,72.6,53.0,27.0,19.0,10.0,33,16,5,0.00,40.00,16,8,26,0.00
2014-3-18,78.0,70.1,62.0,35.0,7.5,-9.0,29,10,3,0.00,40.00,19,12,30,0.00
2014-3-19,81.0,71.7,51.0,16.0,8.3,-1.0,21,10,4,0.00,40.00,11,7,17,0.00
2014-3-20,83.0,75.6,56.0,20.0,7.1,-99.9,24,9,4,0.00,40.00,6,4,11,0.00
2014-3-21,87.0,67.8,49.0,29.0,18.0,-99.9,45,19,6,0.00,40.00,8,5,16,0.00
2014-3-22,86.0,70.5,55.0,43.0,34.9,-99.9,55,31,12,0.00,40.00,8,5,13,0.00
2014-3-23,89.0,72.7,53.0,41.0,34.8,26.0,59,29,11,0.00,40.00,8,4,14,0.00
2014-3-24,90.0,82.4,70.0,34.0,26.4,16.0,27,14,7,0.00,40.00,8,5,14,0.00
2014-3-25,92.0,76.8,55.0,38.0,31.1,24.0,48,22,9,0.00,40.00,9,6,20,0.00
2014-3-26,77.0,68.9,62.0,43.0,38.7,34.0,45,34,21,0.00,40.00,19,12,29,0.00
2014-3-27,77.0,65.9,53.0,42.0,37.0,29.0,65,38,17,0.00,40.00,12,6,21,0.00
2014-3-28,82.0,66.7,49.0,43.0,35.9,26.0,74,38,14,0.00,40.00,7,4,13,0.00
2014-3-29,89.0,74.2,53.0,40.0,28.8,-99.9,54,24,9,0.00,40.00,8,5,15,0.00
2014-3-30,84.0,74.2,61.0,41.0,30.2,14.0,44,22,8,0.00,40.00,13,7,23,0.00
2014-3-31,84.0,76.3,64.0,32.0,21.9,5.0,30,15,5,0.00,40.00,12,8,23,0.00
2014-4-1,75.0,66.9,57.0,40.0,33.2,24.0,37,29,22,0.00,40.00,15,11,25,0.00
2014-4-2,71.0,60.4,48.0,39.0,30.0,24.0,59,34,17,0.00,40.00,14,4,25,0.00
2014-4-3,77.0,62.5,42.0,40.0,30.9,20.0,74,37,12,0.00,40.00,7,5,12,0.00
2014-4-4,82.0,70.7,52.0,34.0,24.0,3.0,43,20,6,0.00,40.00,11,7,20,0.00
2014-4-5,80.0,68.7,54.0,41.0,28.1,-99.9,57,26,10,0.00,40.00,7,4,15,0.00
2014-4-6,86.0,73.4,53.0,32.0,25.0,17.0,39,20,8,0.00,40.00,14,8,24,0.00
2014-4-7,92.0,80.3,52.0,33.0,26.6,19.0,42,17,7,0.00,40.00,11,7,18,0.00
2014-4-8,97.0,88.1,71.0,37.0,23.9,15.0,29,11,5,0.00,40.00,7,5,12,0.00
2014-4-9,102.0,82.9,60.0,39.0,25.2,13.0,45,16,4,0.00,40.00,6,4,11,0.00
2014-4-10,100.0,85.6,55.0,34.0,21.0,5.0,37,12,3,0.00,40.00,9,5,16,0.00
2014-4-11,99.0,83.4,68.0,28.0,19.6,9.0,19,11,4,0.00,40.00,12,7,21,0.00
2014-4-12,91.0,78.3,66.0,39.0,22.7,-99.9,36,15,6,0.00,40.00,12,7,22,0.00
2014-4-13,90.0,75.7,59.0,43.0,38.4,34.0,50,29,14,0.00,40.00,9,6,15,0.00
2014-4-14,86.0,81.2,73.0,26.0,15.4,10.0,17,9,6,0.00,40.00,13,11,24,0.00
2014-4-15,94.0,89.1,76.0,25.0,9.3,0.0,15,6,3,0.00,40.00,7,5,15,0.00
2014-4-16,96.0,81.4,58.0,41.0,28.6,18.0,46,18,6,0.00,40.00,8,5,14,0.00
2014-4-17,90.0,79.1,63.0,38.0,34.0,30.0,35,21,12,0.00,40.00,10,7,19,0.00
2014-4-18,83.0,73.9,63.0,54.0,43.9,35.0,56,37,19,0.00,40.00,10,6,16,0.03
2014-4-19,89.0,76.4,63.0,54.0,45.0,-99.9,73,39,19,0.00,40.00,6,4,12,0.02
2014-4-20,96.0,83.3,62.0,50.0,42.2,39.0,48,25,15,0.00,40.00,7,5,14,0.00
2014-4-21,98.0,85.2,63.0,49.0,40.1,34.0,49,23,12,0.00,40.00,10,5,19,0.00
2014-4-22,93.0,80.7,70.0,46.0,33.3,17.0,39,21,7,0.00,40.00,16,9,27,0.00
2014-4-23,88.0,79.1,66.0,41.0,20.5,11.0,38,14,6,0.00,40.00,9,7,18,0.00
2014-4-24,93.0,82.6,61.0,35.0,22.2,11.0,31,13,5,0.00,40.00,7,5,24,0.00
2014-4-25,90.0,78.0,63.0,43.0,34.0,27.0,43,22,12,0.00,40.00,16,9,29,0.00
2014-4-26,75.0,65.8,61.0,42.0,35.3,29.0,49,34,18,0.00,40.00,15,5,27,0.00
2014-4-28,89.0,84.2,80.0,25.0,23.4,23.0,12,11,10,0.00,40.00,12,10,17,0.00
2014-4-29,87.0,79.9,66.0,29.0,16.6,8.0,25,11,5,0.00,40.00,19,13,30,0.00
2014-4-30,88.0,82.7,69.0,22.0,16.0,12.0,17,8,6,0.00,40.00,18,15,31,0.00
2014-5-1,92.0,85.8,71.0,25.0,19.9,15.0,18,9,6,0.00,40.00,15,11,25,0.00
2014-5-2,101.0,92.3,73.0,28.0,18.1,11.0,17,7,4,0.00,40.00,7,5,16,0.00
2014-5-3,104.0,88.6,63.0,31.0,18.1,-99.9,30,10,3,0.00,40.00,9,6,18,0.00
2014-5-4,102.0,89.0,64.0,32.0,16.9,-2.0,29,9,2,0.00,40.00,11,8,20,0.00
2014-5-5,96.0,81.7,65.0,31.0,18.7,-7.0,26,13,2,0.00,40.00,14,8,29,0.00
2014-5-6,78.0,69.7,61.0,43.0,35.2,29.0,45,29,17,0.00,40.00,18,12,27,0.00
2014-5-13,90.0,89.3,89.0,17.0,14.2,13.0,7,6,6,0.00,40.00,11,11,26,0.00
2014-5-14,95.0,90.9,78.0,25.0,16.4,13.0,14,7,5,0.00,40.00,14,12,21,0.00
2014-5-15,104.0,94.1,69.0,32.0,21.8,15.0,25,9,4,0.00,40.00,6,4,16,0.00
2014-5-16,107.0,88.1,61.0,32.0,21.6,1.0,31,12,2,0.00,40.00,9,5,20,0.00
2014-5-17,106.0,89.7,67.0,39.0,23.9,-99.9,33,11,4,0.00,40.00,11,7,20,0.00
2014-5-18,104.0,88.5,71.0,43.0,26.8,14.0,27,13,4,0.00,40.00,12,8,22,0.00
2014-5-19,97.0,82.4,66.0,35.0,19.3,-99.9,29,12,3,0.00,40.00,12,8,27,0.00
2014-5-20,90.0,76.0,64.0,39.0,29.7,-99.9,35,21,6,0.00,40.00,14,8,26,0.00
2014-5-21,88.0,73.2,56.0,47.0,36.9,26.0,63,31,12,0.00,40.00,12,5,19,0.00
2014-5-22,89.0,74.5,62.0,49.0,41.1,-99.9,58,34,17,0.00,40.00,12,5,22,0.00
2014-5-23,91.0,74.4,61.0,54.0,45.6,35.0,73,41,14,0.00,40.00,10,5,31,0.01
2014-5-24,96.0,77.2,56.0,51.0,44.9,-99.9,69,38,16,0.00,40.00,9,6,16,0.01
2014-5-25,102.0,84.7,60.0,50.0,44.2,39.0,59,28,12,0.00,40.00,6,4,14,0.00
2014-5-26,106.0,88.7,70.0,49.0,43.2,38.0,39,23,10,0.00,40.00,9,6,16,0.00
2014-5-27,105.0,87.9,65.0,52.0,42.0,32.0,52,23,8,0.00,40.00,10,6,17,0.00
2014-5-28,104.0,87.7,66.0,52.0,42.7,36.0,43,23,11,0.00,40.00,9,5,17,0.00
2014-5-29,103.0,88.7,69.0,50.0,40.5,27.0,43,21,7,0.00,40.00,10,6,19,0.00
2014-5-30,107.0,87.6,65.0,48.0,40.8,31.0,45,23,8,0.00,40.00,9,5,14,0.00
2014-5-31,108.0,90.6,70.0,50.0,30.1,-99.9,47,17,3,0.00,40.00,12,6,23,0.00
2014-6-1,104.0,83.0,63.0,45.0,29.9,15.0,45,18,4,0.00,40.00,6,4,12,0.00
2014-6-2,110.0,100.9,87.0,38.0,17.7,2.0,14,6,2,0.00,40.00,14,8,23,0.00
2014-6-3,105.0,88.7,64.0,42.0,22.6,4.0,44,13,3,0.00,40.00,8,5,13,0.00
2014-6-4,107.0,89.4,62.0,44.0,18.3,-14.0,39,12,1,0.00,40.00,11,5,21,0.00
2014-6-5,108.0,88.7,66.0,45.0,29.0,2.0,41,16,2,0.00,40.00,7,5,14,0.00
2014-6-6,108.0,91.4,68.0,45.0,33.5,9.0,39,17,3,0.00,40.00,9,6,18,0.00
2014-6-7,103.0,86.8,67.0,50.0,37.9,-99.9,46,22,7,0.00,40.00,9,6,25,0.00
2014-6-8,108.0,89.0,66.0,56.0,46.6,31.0,54,27,7,0.00,40.00,8,5,17,0.00
2014-6-9,108.0,92.2,71.0,54.0,46.2,39.0,42,23,11,0.00,40.00,9,6,21,0.00
2014-6-10,102.0,92.3,80.0,52.0,43.1,34.0,35,20,10,0.00,40.00,14,8,24,0.00
2014-6-11,106.0,90.8,72.0,45.0,30.3,15.0,30,15,4,0.00,40.00,10,7,19,0.00
2014-6-12,109.0,89.8,63.0,45.0,31.1,15.0,37,16,4,0.00,40.00,9,6,16,0.00
2014-6-13,108.0,93.3,72.0,45.0,30.2,10.0,37,14,3,0.00,40.00,15,8,25,0.00
2014-6-14,104.0,87.6,71.0,47.0,25.5,-99.9,36,14,3,0.00,40.00,15,5,25,0.00
2014-6-15,99.0,86.6,70.0,46.0,27.4,4.0,34,16,3,0.00,40.00,17,8,27,0.00
2014-6-16,103.0,88.6,65.0,41.0,27.0,18.0,33,12,7,0.00,40.00,13,8,26,0.00
2014-6-17,102.0,87.0,67.0,43.0,34.6,28.0,32,17,8,0.00,40.00,17,9,29,0.00
2014-6-18,99.0,84.0,68.0,47.0,37.3,27.0,37,22,8,0.00,40.00,8,5,16,0.00
2014-6-19,105.0,87.1,64.0,45.0,35.8,20.0,50,20,5,0.00,40.00,8,5,13,0.00
2014-6-20,108.0,89.7,62.0,52.0,41.9,34.0,50,23,8,0.00,40.00,10,5,17,0.00
2014-6-21,107.0,91.7,76.0,55.0,44.6,-99.9,43,23,9,0.00,40.00,11,7,21,0.00
2014-6-22,108.0,91.7,76.0,56.0,40.1,17.0,48,21,4,0.00,40.00,9,6,16,0.00
2014-6-23,106.0,88.1,72.0,45.0,31.4,18.0,33,15,5,0.00,40.00,9,6,19,0.00
2014-6-24,105.0,89.6,72.0,51.0,43.6,34.0,41,23,10,0.00,40.00,10,7,17,0.00
2014-6-25,105.0,91.2,67.0,50.0,43.5,36.0,36,20,13,0.00,40.00,10,6,18,0.00
2014-6-26,105.0,91.3,72.0,59.0,46.7,39.0,51,24,11,0.00,40.00,15,8,26,0.00
2014-6-27,106.0,91.4,73.0,55.0,48.1,42.0,49,25,13,0.00,40.00,13,6,25,0.00
2014-6-28,105.0,90.4,77.0,58.0,50.7,-99.9,47,28,16,0.00,40.00,11,6,17,0.00
2014-6-29,105.0,92.6,76.0,60.0,54.3,49.0,49,29,20,0.00,40.00,9,6,19,0.00
2014-6-30,108.0,91.5,76.0,59.0,53.6,41.0,54,31,14,0.00,40.00,9,6,17,0.00
2014-7-1,109.0,95.7,78.0,51.0,42.5,34.0,29,17,11,0.00,40.00,12,7,18,0.00
2014-7-2,108.0,93.8,76.0,58.0,49.1,39.0,35,23,14,0.00,40.00,11,7,19,0.00
2014-7-3,107.0,94.8,86.0,68.0,61.1,51.0,55,34,23,0.00,40.00,13,10,22,0.00
2014-7-4,104.0,93.6,82.0,67.0,63.0,60.0,55,38,24,0.00,40.00,10,6,17,0.00
2014-7-5,107.0,92.0,81.0,70.0,63.0,-99.9,59,42,21,0.00,40.00,16,7,34,0.00
2014-7-6,110.0,94.7,80.0,70.0,63.5,57.0,68,40,19,0.00,40.00,12,5,29,0.00
2014-7-7,114.0,95.6,75.0,68.0,61.9,51.0,69,38,15,0.00,40.00,11,4,19,0.00
2014-7-8,107.0,96.6,85.0,73.0,66.9,60.0,60,39,26,0.00,40.00,15,9,27,0.00
2014-7-9,103.0,93.3,81.0,73.0,66.1,60.0,61,43,28,0.00,40.00,12,8,19,0.00
2014-7-10,107.0,96.7,84.0,69.0,53.4,33.0,60,28,8,0.00,40.00,12,8,19,0.00
2014-7-11,108.0,92.1,74.0,54.0,42.6,35.0,44,21,9,0.00,40.00,10,6,19,0.00
2014-7-12,110.0,92.0,73.0,60.0,47.9,40.0,51,25,11,0.00,40.00,8,5,14,0.00
2014-7-13,110.0,96.2,80.0,61.0,51.5,41.0,44,23,13,0.00,40.00,10,6,19,0.00
2014-7-14,103.0,91.9,83.0,70.0,65.0,54.0,64,43,27,0.00,40.00,14,7,24,0.00
2014-7-15,105.0,90.4,73.0,68.0,60.1,53.0,72,40,21,0.00,40.00,9,5,15,0.00
2014-7-16,110.0,95.6,79.0,58.0,45.1,38.0,41,19,11,0.00,40.00,10,7,20,0.00
2014-7-17,106.0,92.9,77.0,52.0,38.9,28.0,34,17,7,0.00,40.00,10,7,18,0.00
2014-7-18,105.0,90.7,76.0,58.0,53.3,47.0,45,30,20,0.00,40.00,11,6,15,0.00
2014-7-19,107.0,91.1,80.0,58.0,50.7,44.0,39,27,12,0.00,40.00,8,5,15,0.00
2014-7-20,104.0,85.8,67.0,61.0,52.4,49.0,56,35,18,0.00,40.00,11,6,20,0.00
2014-7-21,109.0,89.6,69.0,62.0,50.9,43.0,49,29,11,0.00,40.00,10,5,16,0.00
2014-7-22,114.0,93.7,66.0,56.0,46.8,38.0,58,24,9,0.00,40.00,6,4,12,0.00
2014-7-23,118.0,98.0,72.0,60.0,43.0,27.0,40,19,5,0.00,40.00,7,4,12,0.00
2014-7-24,118.0,99.6,83.0,59.0,52.9,46.0,36,23,10,0.00,40.00,9,5,17,0.00
2014-7-25,110.0,99.5,89.0,69.0,64.1,58.0,50,32,25,0.00,40.00,11,8,20,0.00
2014-7-26,110.0,98.1,85.0,69.0,63.9,62.0,54,33,22,0.00,40.00,9,6,17,0.00
2014-7-27,104.0,92.1,82.0,73.0,64.6,61.0,61,42,26,0.00,40.00,17,6,28,0.00
2014-7-28,108.0,93.8,78.0,70.0,62.3,57.0,60,38,22,0.00,40.00,9,5,18,0.00
2014-7-29,112.0,98.7,84.0,65.0,59.8,55.0,48,30,16,0.00,40.00,7,5,14,0.00
2014-7-30,115.0,100.5,78.0,65.0,55.8,49.0,52,26,12,0.00,40.00,8,5,15,0.00
2014-7-31,110.0,93.7,84.0,67.0,59.6,57.0,43,33,25,0.00,40.00,12,6,17,0.00
2014-8-1,110.0,96.6,86.0,68.0,63.2,60.0,48,35,22,0.00,40.00,10,6,17,0.00
2014-8-2,96.0,86.1,81.0,73.0,66.3,60.0,77,52,31,0.00,40.00,9,5,20,0.00
2014-8-3,98.0,82.0,73.0,73.0,70.1,66.0,95,71,35,0.00,40.00,13,4,26,1.35
2014-8-4,98.0,82.2,71.0,74.0,70.6,64.0,99,73,34,0.00,40.00,6,4,13,0.23
2014-8-5,106.0,89.5,72.0,64.0,51.4,29.0,68,35,7,0.00,40.00,7,4,15,0.00
2014-8-6,106.0,88.5,71.0,57.0,45.6,21.0,57,29,5,0.00,40.00,7,5,17,0.00
2014-8-7,104.0,97.1,86.0,66.0,55.6,42.0,44,26,18,0.00,40.00,9,7,15,0.00
2014-8-8,104.0,90.0,68.0,64.0,57.0,49.0,71,36,22,0.00,40.00,8,5,17,0.00
2014-8-9,106.0,90.9,73.0,66.0,55.1,49.0,65,32,18,0.00,40.00,10,5,15,0.00
2014-8-10,108.0,95.0,82.0,72.0,61.6,57.0,70,36,20,0.00,40.00,8,5,14,0.00
2014-8-11,108.0,97.2,83.0,69.0,60.8,54.0,57,32,19,0.00,40.00,7,5,15,0.00
2014-8-12,100.0,90.6,80.0,76.0,70.0,66.0,88,53,35,0.00,40.00,10,6,15,0.14
2014-8-13,101.0,86.7,75.0,76.0,72.3,70.0,93,65,40,0.00,40.00,14,7,24,0.52
2014-8-14,106.0,92.4,80.0,75.0,68.0,58.0,81,50,21,0.00,40.00,12,5,22,0.29
2014-8-15,107.0,93.9,79.0,71.0,66.9,61.0,75,45,23,0.00,40.00,9,6,22,0.00
2014-8-16,110.0,96.7,83.0,74.0,68.9,61.0,72,43,21,0.00,40.00,7,6,15,0.00
2014-8-17,112.0,98.6,83.0,71.0,64.5,59.0,61,36,19,0.00,40.00,7,4,14,0.00
2014-8-18,96.0,90.0,81.0,73.0,68.8,64.0,74,51,36,0.00,40.00,16,9,27,0.02
2014-8-19,105.0,92.6,82.0,78.0,66.2,46.0,84,49,14,0.00,40.00,11,7,20,0.01
2014-8-20,102.0,88.1,77.0,64.0,56.2,49.0,57,35,22,0.00,40.00,8,5,14,0.00
2014-8-21,101.0,82.3,69.0,71.0,64.6,55.0,92,61,22,0.00,40.00,14,6,36,1.18
2014-8-22,98.0,81.3,65.0,68.0,64.1,60.0,98,62,30,0.00,40.00,5,3,10,0.13
2014-8-23,101.0,84.7,71.0,59.0,51.2,45.0,64,35,16,0.00,40.00,8,5,15,0.01
2014-8-24,103.0,83.9,70.0,60.0,54.0,46.0,65,40,17,0.00,40.00,8,5,14,0.00
2014-8-25,103.0,89.7,78.0,76.0,67.0,49.0,77,51,19,0.00,40.00,11,7,18,0.00
2014-8-26,103.0,90.8,81.0,73.0,67.4,53.0,75,50,21,0.00,40.00,8,6,23,0.00
2014-8-27,106.0,91.9,79.0,66.0,58.7,52.0,65,37,17,0.00,40.00,6,4,13,0.00
2014-8-28,109.0,92.9,75.0,63.0,52.6,35.0,65,32,8,0.00,40.00,7,5,13,0.00
2014-8-29,113.0,103.8,80.0,60.0,45.6,34.0,51,17,7,0.00,40.00,7,5,11,0.00
2014-8-30,112.0,96.3,81.0,58.0,47.7,43.0,45,20,10,0.00,40.00,9,5,15,0.00
2014-8-31,110.0,95.8,80.0,63.0,53.9,46.0,45,27,13,0.00,40.00,10,6,16,0.00
2014-9-1,109.0,97.2,77.0,66.0,56.3,48.0,65,30,14,0.00,40.00,9,5,15,0.00
2014-9-2,110.0,94.9,74.0,62.0,53.2,46.0,65,30,12,0.00,40.00,8,6,17,0.00
2014-9-3,110.0,93.7,74.0,62.0,53.0,46.0,56,30,13,0.00,40.00,8,6,15,0.00
2014-9-4,105.0,90.9,76.0,73.0,61.7,57.0,59,40,24,0.00,40.00,12,7,22,0.00
2014-9-5,103.0,92.0,80.0,74.0,69.4,65.0,67,50,31,0.00,40.00,11,6,22,0.00
2014-9-6,105.0,90.7,80.0,76.0,70.0,67.0,81,53,30,0.00,40.00,8,5,16,0.00
2014-9-7,101.0,89.3,82.0,77.0,71.9,68.0,78,58,37,0.00,40.00,9,4,14,0.15
2014-9-8,100.0,86.9,77.0,75.0,72.2,65.0,90,64,32,0.00,40.00,11,5,16,0.07
2014-9-9,92.0,81.6,76.0,79.0,74.5,72.0,90,80,53,0.00,40.00,11,4,18,0.85
2014-9-10,99.0,87.2,75.0,76.0,70.6,59.0,97,64,29,0.00,40.00,8,4,12,0.73
2014-9-11,105.0,91.4,69.0,70.0,60.7,49.0,91,44,16,0.00,40.00,6,5,11,0.00
2014-9-12,107.0,97.3,70.0,66.0,54.9,46.0,82,30,13,0.00,40.00,7,5,11,0.00
2014-9-13,107.0,96.7,80.0,65.0,59.9,60.0,60,30,22,0.00,40.00,6,5,11,0.00
2014-9-14,107.0,102.2,84.0,67.0,61.7,59.0,56,28,22,0.00,40.00,9,7,14,0.00
2014-9-15,109.0,102.5,76.0,71.0,62.7,58.0,73,30,19,0.00,40.00,10,6,16,0.00
2014-9-16,103.0,91.2,82.0,76.0,69.9,62.0,77,52,30,0.00,40.00,10,6,19,0.00
2014-9-17,99.0,87.1,76.0,71.0,69.2,66.0,82,58,36,0.00,40.00,10,5,14,0.00
2014-9-18,105.0,91.4,80.0,72.0,63.3,42.0,69,44,15,0.00,40.00,9,6,17,0.00
2014-9-19,102.0,88.1,73.0,61.0,57.3,51.0,64,39,19,0.00,40.00,7,4,18,0.00
2014-9-20,103.0,88.1,76.0,69.0,60.2,53.0,70,42,21,0.00,40.00,9,5,18,0.00
2014-9-21,103.0,86.9,72.0,65.0,57.1,46.0,72,42,15,0.00,40.00,6,4,12,0.00
2014-9-22,104.0,87.2,68.0,61.0,51.9,37.0,69,36,10,0.00,40.00,8,4,14,0.00
2014-9-23,106.0,88.2,68.0,63.0,58.3,49.0,73,42,15,0.00,40.00,6,4,11,0.00
2014-9-24,107.0,94.1,71.0,61.0,56.2,50.0,68,32,15,0.00,40.00,8,5,11,0.00
2014-9-25,105.0,95.8,76.0,75.0,66.4,60.0,67,41,23,0.00,40.00,11,8,17,0.00
2014-9-26,99.0,88.6,80.0,74.0,70.8,68.0,77,57,42,0.00,40.00,14,7,24,0.00
2014-9-27,94.0,82.6,75.0,72.0,47.1,21.0,76,36,7,0.00,40.00,14,8,22,0.00
2014-9-28,91.0,77.4,64.0,55.0,46.7,33.0,67,38,13,0.00,40.00,8,5,17,0.00
2014-9-29,90.0,77.3,57.0,55.0,48.8,41.0,81,43,18,0.00,40.00,8,4,14,0.00
2014-9-30,95.0,85.0,66.0,52.0,46.0,38.0,58,29,14,0.00,40.00,6,4,10,0.00
2014-10-1,95.0,80.4,62.0,54.0,48.3,42.0,68,37,16,0.00,40.00,8,4,12,0.00
2014-10-2,88.0,82.6,71.0,43.0,36.6,33.0,36,21,14,0.00,40.00,11,9,18,0.00
2014-10-3,96.0,91.3,84.0,37.0,32.8,30.0,19,13,10,0.00,40.00,8,7,13,0.00
2014-10-4,100.0,82.9,73.0,45.0,36.9,38.0,30,17,12,0.00,40.00,8,6,12,0.00
2014-10-5,100.0,84.6,59.0,50.0,41.5,35.0,69,26,11,0.00,40.00,7,5,12,0.00
2014-10-6,98.0,82.0,61.0,55.0,50.2,44.0,71,36,16,0.00,40.00,5,4,7,0.00
2014-10-7,85.0,75.5,70.0,69.0,61.7,58.0,72,63,50,0.00,40.00,5,3,11,0.00
2014-10-8,81.0,74.4,70.0,64.0,61.7,59.0,78,66,50,0.00,40.00,8,4,12,0.00
2014-10-9,94.0,78.5,64.0,66.0,60.4,54.0,91,59,27,0.00,40.00,7,4,12,0.00
2014-10-10,95.0,83.5,66.0,70.0,63.3,58.0,90,54,29,0.00,40.00,8,5,13,0.00
2014-10-11,98.0,80.1,63.0,67.0,60.7,50.0,92,56,21,0.00,40.00,6,4,9,0.00
2014-10-12,99.0,80.9,63.0,58.0,50.7,42.0,67,41,15,0.00,40.00,7,4,12,0.00
2014-10-13,91.0,82.1,69.0,39.0,31.6,26.0,30,18,10,0.00,40.00,11,8,16,0.00
2014-10-14,97.0,86.7,56.0,44.0,35.1,31.0,63,19,10,0.00,40.00,5,3,11,0.00
2014-10-15,94.0,82.9,57.0,48.0,44.0,38.0,64,28,18,0.00,40.00,8,6,12,0.00
2014-10-16,93.0,77.0,56.0,60.0,51.6,44.0,72,43,22,0.00,40.00,6,4,8,0.00
2014-10-17,95.0,79.8,67.0,58.0,53.7,50.0,61,43,28,0.00,40.00,9,5,19,0.00
2014-10-18,95.0,77.5,64.0,55.0,51.0,48.0,63,41,24,0.00,40.00,6,4,14,0.00
2014-10-19,95.0,82.9,61.0,60.0,52.1,49.0,75,38,21,0.00,40.00,6,4,11,0.00
2014-10-20,96.0,79.4,68.0,66.0,57.3,49.0,87,52,21,0.00,40.00,5,4,9,0.00
2014-10-21,95.0,78.4,64.0,56.0,54.3,50.0,71,46,25,0.00,40.00,6,4,9,0.00
2014-10-22,96.0,82.3,64.0,56.0,52.2,49.0,67,38,21,0.00,40.00,6,4,11,0.00
2014-10-23,96.0,85.0,63.0,54.0,52.0,51.0,69,35,22,0.00,40.00,6,4,9,0.00
2014-10-24,98.0,83.6,63.0,55.0,51.8,48.0,70,37,19,0.00,40.00,6,4,10,0.00
2014-10-25,99.0,80.8,63.0,54.0,51.0,48.0,67,40,20,0.00,40.00,5,3,9,0.00
2014-10-26,89.0,76.8,66.0,61.0,51.8,41.0,61,44,21,0.00,40.00,6,4,11,0.00
2014-10-27,87.0,79.7,57.0,50.0,44.0,41.0,61,30,20,0.00,40.00,8,6,13,0.00
2014-10-28,87.0,81.6,64.0,44.0,38.7,35.0,48,23,16,0.00,40.00,7,6,12,0.00
2014-10-29,89.0,81.3,52.0,45.0,37.8,34.0,72,24,15,0.00,40.00,6,5,12,0.00
2014-10-30,89.0,81.3,64.0,45.0,42.3,40.0,48,26,20,0.00,40.00,6,5,9,0.00
2014-10-31,90.0,80.2,57.0,58.0,52.1,45.0,70,40,22,0.00,40.00,8,6,18,0.00
2014-11-1,79.0,70.4,63.0,55.0,46.0,38.0,61,43,29,0.00,40.00,13,8,22,0.00
2014-11-3,76.0,70.3,52.0,39.0,31.2,27.0,60,25,16,0.00,40.00,11,8,20,0.00
2014-11-4,78.0,71.3,56.0,32.0,29.9,25.0,36,22,16,0.00,40.00,14,9,24,0.00
2014-11-5,83.0,76.2,61.0,29.0,27.6,26.0,30,17,13,0.00,40.00,11,9,18,0.00
2014-11-6,87.0,77.6,58.0,39.0,35.1,32.0,41,23,15,0.00,40.00,11,9,16,0.00
2014-11-7,86.0,78.5,62.0,46.0,40.7,36.0,45,26,22,0.00,40.00,7,6,11,0.00
2014-11-8,88.0,78.9,69.0,42.0,38.4,37.0,37,23,17,0.00,40.00,8,6,12,0.00
2014-11-9,90.0,80.3,61.0,44.0,39.9,35.0,51,26,17,0.00,40.00,5,3,7,0.00
2014-11-10,88.0,73.4,58.0,54.0,44.8,38.0,63,39,17,0.00,40.00,12,7,19,0.00
2014-11-11,84.0,69.9,55.0,55.0,52.8,48.0,86,57,33,0.00,40.00,10,5,16,0.00
2014-11-12,83.0,65.7,54.0,56.0,48.7,44.0,90,57,29,0.00,40.00,6,4,11,0.00
2014-11-13,79.0,65.2,52.0,60.0,50.8,42.0,74,61,42,0.00,40.00,9,5,15,0.00
2014-11-14,78.0,66.5,58.0,61.0,53.5,46.0,92,66,39,0.00,40.00,7,4,10,0.00
2014-11-15,82.0,64.9,51.0,54.0,48.1,44.0,79,56,29,0.00,40.00,10,5,16,0.00
2014-11-16,66.0,58.6,45.0,48.0,18.9,6.0,72,25,9,0.00,40.00,20,12,34,0.00
2014-11-17,69.0,51.0,36.0,27.0,17.9,13.0,45,29,12,0.00,40.00,10,5,19,0.00
2014-11-18,73.0,51.9,36.0,32.0,23.5,18.0,60,36,14,0.00,40.00,9,5,14,0.00
2014-11-19,74.0,49.5,31.0,38.0,27.8,22.0,85,50,16,0.00,40.00,6,3,10,0.00
2014-11-20,75.0,52.0,32.0,35.0,27.8,22.0,83,47,14,0.00,40.00,5,3,9,0.00
2014-11-21,76.0,59.0,49.0,42.0,37.0,28.0,72,46,24,0.00,40.00,6,4,14,0.00
2014-11-22,79.0,57.6,37.0,42.0,35.9,30.0,85,49,21,0.00,40.00,7,4,15,0.00
2014-11-23,75.0,59.1,44.0,40.0,25.6,11.0,73,34,9,0.00,40.00,17,8,30,0.00
2014-11-24,75.0,59.7,37.0,23.0,19.5,13.0,49,24,11,0.00,40.00,14,7,22,0.00
2014-11-25,73.0,65.4,49.0,24.0,19.1,12.0,37,18,10,0.00,40.00,7,5,11,0.00
2014-11-26,76.0,69.4,49.0,29.0,24.6,22.0,45,19,14,0.00,40.00,9,6,14,0.00
2014-11-27,80.0,73.8,62.0,34.0,29.8,25.0,24,20,15,0.00,40.00,8,6,12,0.00
2014-11-28,79.0,67.9,50.0,34.0,30.7,28.0,53,27,17,0.00,40.00,7,5,12,0.00
2014-11-29,82.0,67.8,45.0,39.0,33.5,33.0,63,29,17,0.00,40.00,6,4,10,0.00
2014-11-30,78.0,63.2,52.0,53.0,44.7,38.0,88,55,24,0.00,40.00,10,6,21,0.00
2014-12-1,71.0,58.8,45.0,47.0,44.0,40.0,83,60,40,0.00,40.00,6,4,11,0.00
2014-12-2,69.0,61.4,54.0,54.0,49.0,43.0,79,65,40,0.00,40.00,5,3,8,0.01
2014-12-3,63.0,60.0,56.0,58.0,54.6,48.0,94,83,62,0.00,40.00,10,5,15,0.10
2014-12-4,74.0,63.0,56.0,59.0,56.9,54.0,98,82,57,0.00,40.00,9,4,16,0.01
2014-12-5,72.0,59.9,50.0,59.0,55.0,49.0,99,85,64,0.00,40.00,6,3,10,0.00
2014-12-6,76.0,63.2,52.0,58.0,53.8,50.0,94,72,48,0.00,40.00,7,4,14,0.00
2014-12-7,77.0,66.6,51.0,52.0,49.8,47.0,90,57,36,0.00,40.00,8,6,12,0.00
2014-12-8,73.0,64.9,51.0,50.0,48.1,46.0,82,56,41,0.00,40.00,7,5,12,0.00
2014-12-9,77.0,67.2,56.0,46.0,43.6,43.0,65,42,30,0.00,40.00,10,7,16,0.00
2014-12-10,77.0,61.7,50.0,45.0,37.9,40.0,76,38,27,0.00,40.00,7,5,12,0.00
2014-12-11,75.0,65.8,52.0,48.0,43.3,43.0,70,44,32,0.00,40.00,7,4,12,0.00
2014-12-12,71.0,59.6,48.0,55.0,51.7,44.0,97,77,53,0.00,40.00,13,6,24,0.04
2014-12-13,69.0,56.7,45.0,50.0,43.2,37.0,94,66,31,0.00,40.00,8,5,16,0.01
2014-12-14,66.0,53.0,40.0,42.0,38.3,35.0,85,59,36,0.00,40.00,8,4,11,0.00
2014-12-15,63.0,55.6,41.0,42.0,39.4,37.0,88,56,40,0.00,40.00,8,5,13,0.00
2014-12-16,63.0,54.0,42.0,52.0,43.0,37.0,97,69,43,0.00,40.00,6,3,13,0.18
2014-12-17,64.0,54.0,47.0,52.0,49.8,46.0,99,87,60,0.00,40.00,10,4,14,0.28
2014-12-18,64.0,55.3,47.0,52.0,49.2,45.0,98,82,56,0.00,40.00,7,4,13,0.03
2014-12-19,65.0,55.3,38.0,46.0,44.2,38.0,99,69,48,0.00,40.00,6,4,10,0.00
2014-12-20,63.0,48.8,39.0,46.0,39.0,39.0,99,70,51,0.00,40.00,7,4,11,0.00
2014-12-21,64.0,55.2,41.0,46.0,44.4,39.0,98,69,48,0.00,40.00,6,4,10,0.00
2014-12-22,76.0,63.7,46.0,48.0,46.1,42.0,92,56,34,0.00,40.00,5,3,8,0.00
2014-12-23,74.0,69.1,53.0,40.0,30.0,22.0,47,25,15,0.00,40.00,13,11,21,0.00
2014-12-24,69.0,59.4,43.0,34.0,24.0,18.0,57,28,14,0.00,40.00,6,4,12,0.00
2014-12-25,65.0,55.2,45.0,29.0,18.5,7.0,43,25,13,0.00,40.00,17,8,26,0.00
2014-12-26,61.0,50.7,39.0,21.0,17.1,14.0,43,28,16,0.00,40.00,11,6,19,0.00
2014-12-27,60.0,51.5,38.0,18.0,15.3,15.0,40,23,17,0.00,40.00,12,8,21,0.00
2014-12-28,58.0,52.6,32.0,24.0,17.8,16.0,71,26,19,0.00,40.00,7,5,13,0.00
2014-12-29,63.0,51.8,34.0,24.0,19.1,15.0,66,31,16,0.00,40.00,6,3,11,0.00
2014-12-30,61.0,45.2,29.0,26.0,21.3,18.0,71,42,20,0.00,40.00,8,5,13,0.00
2014-12-31,51.0,45.4,40.0,35.0,25.7,21.0,78,48,33,0.00,40.00,13,9,23,0.00